Time;durP1;ratioP1;P1;durP2;ratioP2;P2;SDS_P1;SDS_P2;PMS_P1;PMS_P2;Temp;Humidity;BMP_temperature;BMP_pressure;BME280_temperature;BME280_humidity;BME280_pressure;Samples;Min_cycle;Max_cycle;Signal;HPM_P1;HPM_P2
2021/12/20 00:02:17;;;;;;;27.42;6.25;;;8.40;99.90;;;6.46;100.00;101604.19;4999239;23;20120;-86
2021/12/20 00:04:45;;;;;;;16.25;5.57;;;8.40;99.90;;;6.51;100.00;101607.38;5009559;28;20125;-86
2021/12/20 00:07:13;;;;;;;20.48;5.28;;;8.40;99.90;;;6.54;100.00;101598.13;5009771;28;20064;-86
2021/12/20 00:09:40;;;;;;;18.50;5.60;;;8.40;99.90;;;6.55;100.00;101603.41;5009543;28;20702;-86
2021/12/20 00:12:09;;;;;;;16.58;5.75;;;8.40;99.90;;;6.51;100.00;101599.25;4990725;28;20046;-86
2021/12/20 00:14:37;;;;;;;17.02;5.65;;;8.40;99.90;;;6.51;100.00;101596.56;5009424;28;20065;-86
2021/12/20 00:17:05;;;;;;;23.10;5.57;;;8.40;99.90;;;6.52;100.00;101603.66;5009406;28;20113;-86
2021/12/20 00:19:32;;;;;;;20.52;5.80;;;8.40;99.90;;;6.52;100.00;101587.44;5009467;28;20076;-86
2021/12/20 00:21:59;;;;;;;16.75;5.30;;;8.40;99.90;;;6.53;100.00;101590.97;5008941;28;20722;-86
2021/12/20 00:24:27;;;;;;;20.20;5.35;;;8.40;99.90;;;6.48;100.00;101583.28;5009148;28;20077;-87
2021/12/20 00:26:54;;;;;;;24.10;5.82;;;8.40;99.90;;;6.51;100.00;101585.72;5009128;28;20042;-86
2021/12/20 00:29:21;;;;;;;18.00;5.18;;;8.40;99.90;;;6.54;100.00;101582.75;5009211;28;20273;-86
2021/12/20 00:31:50;;;;;;;15.15;4.75;;;8.20;99.90;;;6.50;100.00;101586.72;5008884;28;20462;-86
2021/12/20 00:34:17;;;;;;;20.00;4.85;;;8.40;99.90;;;6.49;100.00;101590.38;5009235;28;20050;-86
2021/12/20 00:36:44;;;;;;;24.17;5.10;;;8.40;99.90;;;6.45;100.00;101575.41;5009067;28;20072;-86
2021/12/20 00:41:56;;;;;;;20.63;5.07;;;8.40;99.90;;;6.49;100.00;101578.72;4989213;28;20140;-86
2021/12/20 00:44:23;;;;;;;18.55;4.53;;;8.30;99.90;;;6.50;100.00;101592.13;4989488;28;20109;-86
2021/12/20 00:46:52;;;;;;;22.83;5.15;;;8.30;99.90;;;6.49;100.00;101582.28;4989469;28;20073;-86
2021/12/20 00:49:19;;;;;;;20.70;4.75;;;8.30;99.90;;;6.42;100.00;101581.09;4989136;28;20039;-87
2021/12/20 00:51:46;;;;;;;21.60;4.13;;;8.30;99.90;;;6.40;100.00;101578.53;4988870;28;20113;-87
2021/12/20 00:54:14;;;;;;;26.67;4.68;;;8.30;99.90;;;6.39;100.00;101574.09;4989225;28;20092;-86
2021/12/20 00:56:41;;;;;;;22.02;4.35;;;8.30;99.90;;;6.39;100.00;101582.19;4989501;28;20137;-86
2021/12/20 00:59:08;;;;;;;21.40;4.47;;;8.30;99.90;;;6.32;100.00;101580.16;4989402;28;20133;-86
2021/12/20 01:01:36;;;;;;;22.67;4.90;;;8.30;99.90;;;6.31;100.00;101578.47;4988928;28;20160;-86
2021/12/20 01:04:05;;;;;;;18.67;4.57;;;8.30;99.90;;;6.34;100.00;101586.28;4989184;28;20069;-86
2021/12/20 01:06:32;;;;;;;23.20;4.95;;;8.30;99.90;;;6.32;100.00;101586.44;4989212;28;20129;-86
2021/12/20 01:09:00;;;;;;;19.73;4.38;;;8.30;99.90;;;6.28;100.00;101594.94;4986886;28;20137;-86
2021/12/20 01:11:29;;;;;;;28.30;5.20;;;8.20;99.90;;;6.23;100.00;101588.06;4986956;28;20465;-86
2021/12/20 01:13:59;;;;;;;20.08;4.82;;;8.20;99.90;;;6.26;100.00;101582.41;4989383;28;20050;-86
2021/12/20 01:16:31;;;;;;;24.67;5.30;;;8.20;99.90;;;6.28;100.00;101586.81;4989057;28;20053;-86
2021/12/20 01:19:00;;;;;;;19.67;4.40;;;8.20;99.90;;;6.25;100.00;101586.09;4989374;28;20047;-86
2021/12/20 01:21:29;;;;;;;14.57;4.68;;;8.20;99.90;;;6.22;100.00;101591.75;4988785;28;20038;-86
2021/12/20 01:23:57;;;;;;;18.42;4.38;;;8.20;99.90;;;6.17;100.00;101594.00;4990505;28;20101;-86
2021/12/20 01:26:24;;;;;;;22.75;4.90;;;8.20;99.90;;;6.20;100.00;101582.06;4992792;28;20042;-86
2021/12/20 01:28:51;;;;;;;18.30;4.47;;;8.20;99.90;;;6.21;100.00;101590.06;4992665;28;20462;-86
2021/12/20 01:31:19;;;;;;;24.10;4.75;;;8.20;99.90;;;6.17;100.00;101594.00;4992356;28;20048;-86
2021/12/20 01:33:46;;;;;;;19.08;5.13;;;8.20;99.90;;;6.18;100.00;101597.56;4992699;28;20070;-86
2021/12/20 01:36:13;;;;;;;17.45;4.25;;;8.20;99.90;;;6.19;100.00;101597.44;4974850;28;20056;-86
2021/12/20 01:38:42;;;;;;;21.05;4.18;;;8.20;99.90;;;6.17;100.00;101594.00;4992729;28;20070;-87
2021/12/20 01:41:10;;;;;;;30.13;5.60;;;8.20;99.90;;;6.21;100.00;101594.59;5004311;28;20082;-86
2021/12/20 01:43:38;;;;;;;21.13;4.03;;;8.20;99.90;;;6.19;100.00;101596.59;5011966;28;20096;-87
2021/12/20 01:46:06;;;;;;;19.10;4.00;;;8.20;99.90;;;6.14;100.00;101599.66;5012278;28;20042;-87
2021/12/20 01:48:35;;;;;;;16.95;3.75;;;8.20;99.90;;;6.20;100.00;101588.31;5011983;28;20046;-87
2021/12/20 01:53:45;;;;;;;14.43;3.78;;;8.20;99.90;;;6.16;100.00;101597.69;5009170;28;20065;-86
2021/12/20 01:56:13;;;;;;;27.35;4.18;;;8.10;99.90;;;6.15;100.00;101590.56;4994083;28;20868;-86
2021/12/20 01:58:40;;;;;;;20.85;4.13;;;8.10;99.90;;;6.17;100.00;101585.91;5011897;28;20458;-86
2021/12/20 02:01:21;;;;;;;17.08;3.90;;;8.10;99.90;;;6.24;100.00;101594.31;5011533;28;20663;-86
2021/12/20 02:03:56;;;;;;;18.70;4.13;;;8.10;99.90;;;6.15;100.00;101593.28;5011669;28;20049;-86
2021/12/20 02:06:28;;;;;;;23.77;4.90;;;8.10;99.90;;;6.14;100.00;101588.84;5011634;28;20541;-86
2021/12/20 02:08:59;;;;;;;26.42;4.70;;;8.10;99.90;;;6.22;100.00;101590.91;5004090;28;20490;-86
2021/12/20 02:11:27;;;;;;;18.40;4.30;;;8.10;99.90;;;6.19;100.00;101581.22;4990647;28;20073;-86
2021/12/20 02:13:55;;;;;;;19.58;4.03;;;8.10;99.90;;;6.24;100.00;101584.41;4992037;28;20042;-86
2021/12/20 02:16:24;;;;;;;17.90;4.00;;;8.10;99.90;;;6.23;100.00;101589.94;4991980;28;20074;-86
2021/12/20 02:18:51;;;;;;;20.38;4.07;;;8.10;99.90;;;6.15;100.00;101579.75;4991841;28;20046;-86
2021/12/20 02:21:20;;;;;;;20.13;4.15;;;8.10;99.90;;;6.16;100.00;101578.75;4991575;28;20042;-86
2021/12/20 02:23:49;;;;;;;25.73;5.55;;;8.10;99.90;;;6.16;100.00;101580.63;4991992;28;20573;-87
2021/12/20 02:26:19;;;;;;;18.63;4.57;;;8.10;99.90;;;6.07;100.00;101576.81;4991958;28;20074;-85
2021/12/20 02:28:48;;;;;;;17.65;4.85;;;8.10;99.90;;;6.16;100.00;101586.88;4991911;28;20046;-86
2021/12/20 02:39:40;;;;;;;23.13;4.95;;;8.10;99.90;;;6.23;100.00;101574.56;4984307;28;20133;-87
2021/12/20 02:42:10;;;;;;;19.15;4.47;;;8.10;99.90;;;6.20;100.00;101572.09;4989785;28;20038;-86
2021/12/20 02:44:37;;;;;;;31.13;4.60;;;8.10;99.90;;;6.21;100.00;101563.03;4974968;28;20476;-87
2021/12/20 02:47:08;;;;;;;26.63;5.13;;;8.10;99.90;;;6.20;100.00;101572.09;4991371;28;20048;-86
2021/12/20 02:49:36;;;;;;;20.45;4.43;;;8.10;99.90;;;6.18;100.00;101573.22;4991322;28;20042;-86
2021/12/20 02:52:07;;;;;;;19.98;4.30;;;8.10;99.90;;;6.16;100.00;101576.06;4991048;28;20824;-86
2021/12/20 02:54:36;;;;;;;;;;;8.10;99.90;;;6.18;100.00;101576.78;4991884;28;20066;-86
2021/12/20 02:57:04;;;;;;;18.00;4.05;;;8.10;99.90;;;6.16;100.00;101572.50;4991383;28;19933;-85
2021/12/20 02:59:32;;;;;;;23.33;4.63;;;8.10;99.90;;;6.17;100.00;101568.78;4973726;28;20060;-86
2021/12/20 03:02:04;;;;;;;25.80;4.60;;;8.10;99.90;;;6.07;100.00;101569.59;4990792;28;20136;-86
2021/12/20 03:04:32;;;;;;;23.67;4.78;;;8.10;99.90;;;6.08;100.00;101573.16;4991110;28;20081;-85
2021/12/20 03:07:04;;;;;;;30.52;4.10;;;8.10;99.90;;;6.09;100.00;101569.44;4991081;28;20050;-85
2021/12/20 03:09:38;;;;;;;17.73;3.70;;;8.10;99.90;;;6.09;100.00;101571.31;4990937;28;20046;-86
2021/12/20 03:12:12;;;;;;;20.67;3.70;;;8.10;99.90;;;6.11;100.00;101574.72;4989880;28;20458;-86
2021/12/20 03:14:44;;;;;;;19.95;3.90;;;8.00;99.90;;;6.09;100.00;101576.72;4991034;28;20050;-85
2021/12/20 03:17:12;;;;;;;23.05;3.75;;;8.00;99.90;;;6.09;100.00;101565.91;4990842;28;20042;-86
2021/12/20 03:19:40;;;;;;;21.15;4.10;;;8.00;99.90;;;6.18;100.00;101584.03;4990929;28;20041;-86
2021/12/20 03:22:08;;;;;;;28.50;4.50;;;8.00;99.90;;;6.14;100.00;101578.03;4990282;28;20073;-86
2021/12/20 03:24:37;;;;;;;23.88;4.28;;;8.00;99.90;;;6.06;100.00;101569.72;4990730;28;20133;-85
2021/12/20 03:27:05;;;;;;;21.48;4.32;;;8.00;99.90;;;6.07;100.00;101571.41;4990678;28;20534;-86
2021/12/20 03:29:32;;;;;;;23.10;4.32;;;8.00;99.90;;;6.08;100.00;101578.56;4990657;28;20234;-86
2021/12/20 03:31:59;;;;;;;26.83;5.10;;;8.00;99.90;;;6.07;100.00;101572.31;4990150;28;20048;-86
2021/12/20 03:34:27;;;;;;;20.80;4.05;;;8.00;99.90;;;6.13;100.00;101581.75;4989971;28;20105;-85
2021/12/20 03:36:54;;;;;;;26.75;4.78;;;8.00;99.90;;;6.09;100.00;101572.16;4989063;28;21024;-87
2021/12/20 03:39:22;;;;;;;18.58;4.47;;;8.00;99.90;;;6.09;100.00;101577.56;4990572;28;20043;-86
2021/12/20 03:41:50;;;;;;;17.27;4.22;;;8.00;99.90;;;6.11;100.00;101578.31;4989941;28;20117;-86
2021/12/20 03:44:17;;;;;;;29.52;4.53;;;8.00;99.90;;;6.11;100.00;101577.44;4990333;28;20128;-85
2021/12/20 03:46:45;;;;;;;24.02;4.57;;;8.00;99.90;;;6.03;100.00;101580.78;4988786;28;20101;-85
2021/12/20 03:49:12;;;;;;;30.73;4.75;;;8.00;99.90;;;6.03;100.00;101575.38;4989968;28;20409;-86
2021/12/20 03:51:39;;;;;;;25.60;4.03;;;8.00;99.90;;;6.02;100.00;101579.09;4989471;28;20078;-85
2021/12/20 03:54:07;;;;;;;22.48;3.65;;;8.00;99.90;;;5.99;100.00;101577.47;4990173;28;20150;-86
2021/12/20 03:56:34;;;;;;;20.02;4.25;;;8.00;99.90;;;5.99;100.00;101582.03;4990060;28;20101;-86
2021/12/20 03:59:03;;;;;;;22.02;4.63;;;8.00;99.90;;;6.01;100.00;101588.16;4989958;28;20072;-86
2021/12/20 04:01:30;;;;;;;19.83;3.80;;;7.90;99.90;;;5.96;100.00;101574.16;4989668;28;20085;-85
2021/12/20 04:04:00;;;;;;;30.00;4.45;;;8.00;99.90;;;6.01;100.00;101580.06;4989979;28;20084;-86
2021/12/20 04:06:31;;;;;;;23.52;3.88;;;8.00;99.90;;;6.01;100.00;101577.34;4990128;28;20050;-85
2021/12/20 04:08:58;;;;;;;23.55;3.78;;;8.00;99.90;;;6.02;100.00;101577.22;4989955;28;20050;-86
2021/12/20 04:11:26;;;;;;;18.65;4.05;;;8.00;99.90;;;5.95;100.00;101584.13;4972053;28;20142;-86
2021/12/20 04:13:56;;;;;;;20.15;3.83;;;7.90;99.90;;;5.85;100.00;101583.16;4990031;28;20137;-86
2021/12/20 04:16:25;;;;;;;22.73;4.15;;;8.10;99.90;;;5.81;100.00;101582.53;4989904;28;20145;-86
2021/12/20 04:18:52;;;;;;;21.58;3.67;;;8.00;99.90;;;5.86;100.00;101580.34;4972373;28;20562;-86
2021/12/20 04:21:19;;;;;;;21.02;3.65;;;7.90;99.90;;;5.79;100.00;101578.28;4971854;28;20485;-86
2021/12/20 04:23:47;;;;;;;22.77;4.00;;;7.90;99.90;;;5.88;100.00;101577.47;4989832;28;20070;-86
2021/12/20 04:26:14;;;;;;;21.50;4.28;;;7.80;99.90;;;5.84;100.00;101574.16;4989622;28;20409;-86
2021/12/20 04:28:42;;;;;;;21.88;3.75;;;7.90;99.90;;;5.84;100.00;101581.41;4989766;28;20130;-86
2021/12/20 04:31:09;;;;;;;21.50;4.20;;;7.90;99.90;;;5.85;100.00;101583.16;4989261;28;20403;-86
2021/12/20 04:33:38;;;;;;;28.27;5.15;;;7.80;99.90;;;5.87;100.00;101583.88;4989715;28;20042;-86
2021/12/20 04:36:06;;;;;;;25.60;3.75;;;7.80;99.90;;;5.86;100.00;101579.44;4979006;28;20050;-86
2021/12/20 04:38:34;;;;;;;20.63;4.03;;;7.80;99.90;;;5.82;100.00;101589.66;4989672;28;20575;-85
2021/12/20 04:41:01;;;;;;;28.67;4.30;;;7.80;99.90;;;5.80;100.00;101588.06;4997144;28;20108;-86
2021/12/20 04:43:28;;;;;;;17.15;3.53;;;7.80;99.90;;;5.79;100.00;101589.06;4989499;28;20074;-85
2021/12/20 04:45:55;;;;;;;24.05;4.55;;;7.80;99.90;;;5.77;100.00;101581.09;4989777;28;20038;-86
2021/12/20 04:48:23;;;;;;;23.75;4.68;;;7.80;99.90;;;5.75;100.00;101577.66;4989577;28;20070;-86
2021/12/20 04:50:51;;;;;;;25.45;4.65;;;7.80;99.90;;;5.82;100.00;101578.00;4989543;28;20497;-86
2021/12/20 04:53:19;;;;;;;28.25;4.80;;;7.70;99.90;;;5.80;100.00;101591.63;4989295;28;20053;-86
2021/12/20 04:55:46;;;;;;;28.40;4.70;;;7.80;99.90;;;5.78;100.00;101585.50;4989632;28;20133;-86
2021/12/20 04:58:15;;;;;;;26.85;4.47;;;7.70;99.90;;;5.82;100.00;101589.66;4989895;28;20042;-86
2021/12/20 05:00:43;;;;;;;27.08;4.50;;;7.80;99.90;;;5.76;100.00;101594.72;4993488;28;20117;-86
2021/12/20 05:03:11;;;;;;;22.92;4.75;;;7.90;99.90;;;5.79;100.00;101597.19;4993011;28;20049;-86
2021/12/20 05:05:38;;;;;;;30.20;4.50;;;7.80;99.90;;;5.75;100.00;101587.59;4993203;28;20590;-86
2021/12/20 05:08:08;;;;;;;27.55;4.68;;;7.80;99.90;;;5.71;100.00;101591.53;4993271;28;20043;-85
2021/12/20 05:10:38;;;;;;;27.88;4.70;;;7.80;99.90;;;5.73;100.00;101590.44;4992778;28;20077;-85
2021/12/20 05:13:11;;;;;;;26.02;4.60;;;7.80;99.90;;;5.79;100.00;101589.94;4993028;28;20541;-85
2021/12/20 05:15:40;;;;;;;25.80;4.68;;;7.70;99.90;;;5.83;100.00;101596.78;4993349;28;20088;-86
2021/12/20 05:18:10;;;;;;;24.27;4.40;;;7.70;99.90;;;5.82;100.00;101596.91;4993268;28;20046;-86
2021/12/20 05:20:37;;;;;;;31.35;4.53;;;7.70;99.90;;;5.87;100.00;101594.69;4993199;28;20078;-86
2021/12/20 05:23:07;;;;;;;22.20;4.93;;;7.70;99.90;;;5.92;100.00;101595.19;4992966;28;20092;-86
2021/12/20 05:25:35;;;;;;;29.30;5.38;;;7.80;99.90;;;5.92;100.00;101594.28;4993125;28;20074;-86
2021/12/20 05:28:02;;;;;;;29.50;4.60;;;7.80;99.90;;;5.85;100.00;101596.66;5008416;28;20069;-85
2021/12/20 05:30:30;;;;;;;28.52;4.70;;;7.80;99.90;;;5.89;100.00;101598.13;5012503;28;20099;-85
2021/12/20 05:32:58;;;;;;;24.77;4.45;;;7.80;99.90;;;5.83;100.00;101588.69;5012200;28;20033;-86
2021/12/20 05:35:25;;;;;;;31.38;4.53;;;7.80;99.90;;;5.87;100.00;101602.78;5012762;28;20050;-85
2021/12/20 05:37:52;;;;;;;26.08;4.60;;;7.80;99.90;;;5.86;100.00;101607.34;5012552;28;20116;-83
2021/12/20 05:40:21;;;;;;;29.83;5.03;;;7.80;99.90;;;5.86;100.00;101601.94;4988101;28;20039;-87
2021/12/20 05:42:48;;;;;;;41.20;5.30;;;7.80;99.90;;;5.92;100.00;101600.56;4990926;28;20046;-86
2021/12/20 05:45:16;;;;;;;26.33;4.80;;;7.80;99.90;;;5.94;100.00;101611.22;4992649;28;20226;-88
2021/12/20 05:47:44;;;;;;;27.33;5.47;;;7.80;99.90;;;5.93;100.00;101609.53;4992933;28;20089;-88
2021/12/20 05:50:13;;;;;;;31.55;4.95;;;7.80;99.90;;;5.92;100.00;101611.38;4992856;28;20564;-88
2021/12/20 05:52:41;;;;;;;28.42;4.82;;;7.80;99.90;;;5.85;100.00;101600.22;4992388;28;20569;-87
2021/12/20 05:55:10;;;;;;;23.90;4.38;;;7.80;99.90;;;5.74;100.00;101602.09;4991373;28;20120;-90
2021/12/20 05:57:39;;;;;;;31.45;5.32;;;7.80;99.90;;;5.66;100.00;101603.56;4992679;28;20495;-89
2021/12/20 06:00:14;;;;;;;28.55;5.22;;;7.70;99.90;;;5.69;100.00;101610.56;4992973;28;20138;-89
2021/12/20 06:02:42;;;;;;;28.85;4.75;;;7.80;99.90;;;5.70;100.00;101614.97;5007319;22;20489;-87
2021/12/20 06:05:10;;;;;;;24.65;4.43;;;7.70;99.90;;;5.65;100.00;101612.69;4992386;28;20039;-87
2021/12/20 06:07:42;;;;;;;26.80;4.53;;;7.70;99.90;;;5.57;100.00;101611.56;4974630;28;20046;-87
2021/12/20 06:10:13;;;;;;;27.27;4.78;;;7.70;99.90;;;5.53;100.00;101618.22;4989431;28;20046;-87
2021/12/20 06:12:43;;;;;;;28.90;4.63;;;7.70;99.90;;;5.51;100.00;101622.88;4991555;28;20046;-86
2021/12/20 06:15:12;;;;;;;25.55;5.13;;;7.60;99.90;;;5.48;100.00;101618.56;4991966;28;20046;-85
2021/12/20 06:17:39;;;;;;;39.05;5.63;;;7.60;99.90;;;5.45;100.00;101625.06;4992145;28;20050;-86
2021/12/20 06:20:10;;;;;;;33.38;5.78;;;7.60;99.90;;;5.40;100.00;101632.69;4992094;28;20472;-86
2021/12/20 06:22:38;;;;;;;33.92;4.57;;;7.60;99.90;;;5.35;100.00;101632.22;4991793;28;20049;-85
2021/12/20 06:25:06;;;;;;;30.83;4.97;;;7.60;99.90;;;5.31;100.00;101636.13;4991974;28;20049;-85
2021/12/20 06:27:34;;;;;;;29.80;4.18;;;7.50;99.90;;;5.22;100.00;101634.19;4991801;28;20065;-85
2021/12/20 06:30:03;;;;;;;29.70;5.65;;;7.50;99.90;;;5.20;100.00;101646.94;4991856;28;20133;-85
2021/12/20 06:32:30;;;;;;;37.03;5.55;;;7.50;99.90;;;5.11;100.00;101647.66;4991444;28;21677;-85
2021/12/20 06:34:58;;;;;;;33.22;5.82;;;7.40;99.90;;;5.13;100.00;101645.69;4991413;28;20070;-86
2021/12/20 06:37:25;;;;;;;30.70;5.25;;;7.40;99.90;;;5.15;100.00;101649.13;4991714;28;20506;-86
2021/12/20 06:39:52;;;;;;;36.65;5.50;;;7.30;99.90;;;4.93;100.00;101660.72;4991488;28;20454;-86
2021/12/20 06:42:20;;;;;;;27.70;4.85;;;7.50;99.90;;;4.84;100.00;101657.78;4991366;28;20046;-85
2021/12/20 06:44:47;;;;;;;32.67;4.88;;;7.20;99.90;;;4.74;100.00;101655.91;4978947;28;20489;-83
2021/12/20 06:47:17;;;;;;;30.75;4.68;;;7.20;99.90;;;4.40;100.00;101662.06;4973979;28;20050;-83
2021/12/20 06:49:44;;;;;;;30.08;4.95;;;7.10;99.90;;;4.30;100.00;101670.00;4991472;28;20054;-86
2021/12/20 06:52:12;;;;;;;30.80;5.15;;;7.10;99.90;;;4.12;100.00;101671.34;4991045;28;20070;-90
2021/12/20 06:54:39;;;;;;;40.13;4.65;;;7.00;99.90;;;4.05;100.00;101667.38;4992250;28;20046;-83
2021/12/20 06:57:07;;;;;;;29.73;5.15;;;6.90;99.90;;;4.06;100.00;101666.44;4991294;28;20131;-88
2021/12/20 06:59:34;;;;;;;28.58;4.70;;;6.80;99.90;;;3.86;100.00;101663.34;4975252;28;20521;-87
2021/12/20 07:02:02;;;;;;;28.92;5.45;;;6.80;99.90;;;3.65;100.00;101673.84;4991716;28;20527;-90
2021/12/20 07:04:31;;;;;;;33.83;4.60;;;6.80;99.90;;;3.60;100.00;101675.16;4991605;28;20046;-90
2021/12/20 07:06:59;;;;;;;27.25;5.28;;;6.70;99.90;;;3.62;100.00;101681.31;4973722;28;20047;-90
2021/12/20 07:09:26;;;;;;;33.17;4.72;;;6.60;99.90;;;3.53;100.00;101675.59;4973256;28;20054;-88
2021/12/20 07:12:00;;;;;;;30.27;4.88;;;6.60;99.90;;;3.42;100.00;101672.81;4972310;28;20460;-89
2021/12/20 07:14:28;;;;;;;26.90;5.00;;;6.50;99.90;;;3.30;100.00;101673.72;4992379;28;20050;-92
2021/12/20 07:19:48;;;;;;;26.67;4.72;;;6.40;99.90;;;3.23;100.00;101683.19;4320803;22;20560;-88
2021/12/20 07:22:15;;;;;;;35.38;6.22;;;6.30;99.90;;;3.15;100.00;101680.19;4990062;28;20062;-86
2021/12/20 07:24:42;;;;;;;24.20;4.90;;;6.30;99.90;;;3.00;100.00;101692.84;4990720;28;20042;-87
2021/12/20 07:27:11;;;;;;;29.75;5.47;;;6.20;99.90;;;2.99;100.00;101686.63;4990611;28;20572;-88
2021/12/20 07:29:39;;;;;;;34.28;5.22;;;6.10;99.90;;;2.91;100.00;101684.47;4990858;28;20042;-87
2021/12/20 07:32:08;;;;;;;26.95;5.07;;;6.10;99.90;;;2.80;100.00;101687.03;4990157;28;20049;-87
2021/12/20 07:34:35;;;;;;;24.55;4.22;;;6.00;99.90;;;2.74;100.00;101688.31;4989702;28;20058;-85
2021/12/20 07:37:04;;;;;;;28.42;5.10;;;6.00;99.90;;;2.73;100.00;101691.94;4990448;28;20177;-84
2021/12/20 07:39:33;;;;;;;30.60;5.15;;;5.90;99.90;;;2.74;100.00;101687.44;4990719;28;20778;-90
2021/12/20 07:42:01;;;;;;;35.05;5.90;;;5.90;99.90;;;2.73;100.00;101691.94;4989723;28;20089;-84
2021/12/20 07:44:28;;;;;;;30.08;5.22;;;5.90;99.90;;;2.97;100.00;101696.63;4989635;28;20064;-84
2021/12/20 07:46:55;;;;;;;36.33;5.95;;;5.80;99.90;;;2.94;100.00;101704.91;4990328;28;20038;-84
2021/12/20 07:49:23;;;;;;;31.85;6.13;;;5.80;99.90;;;2.85;100.00;101695.63;4990191;28;20056;-84
2021/12/20 07:51:53;;;;;;;31.63;5.22;;;5.90;99.90;;;2.89;100.00;101698.97;4988586;28;20137;-84
2021/12/20 07:54:21;;;;;;;28.45;5.75;;;5.80;99.90;;;2.84;100.00;101703.81;4988572;28;20057;-84
2021/12/20 07:56:49;;;;;;;28.73;4.95;;;5.90;99.90;;;2.81;100.00;101710.25;4990165;28;20054;-84
2021/12/20 07:59:17;;;;;;;39.65;5.55;;;5.70;99.90;;;2.73;100.00;101713.47;4989879;28;20522;-84
2021/12/20 08:01:46;;;;;;;27.08;5.93;;;5.70;99.90;;;2.60;100.00;101704.50;4990199;28;20054;-84
2021/12/20 08:04:14;;;;;;;27.00;5.35;;;5.70;99.90;;;2.59;100.00;101718.94;4990228;28;20422;-84
2021/12/20 08:06:42;;;;;;;28.98;5.43;;;5.60;99.90;;;2.61;100.00;101713.41;4990104;28;20063;-85
2021/12/20 08:09:11;;;;;;;33.50;5.53;;;5.60;99.90;;;2.71;100.00;101717.22;4989994;28;20069;-85
2021/12/20 08:11:40;;;;;;;32.08;5.60;;;5.60;99.90;;;2.88;100.00;101705.31;4988039;28;20074;-85
2021/12/20 08:14:07;;;;;;;25.98;5.13;;;5.60;99.90;;;3.01;100.00;101710.69;4989734;28;20116;-84
2021/12/20 08:16:35;;;;;;;34.22;6.63;;;5.50;99.90;;;2.95;100.00;101717.34;4989776;28;20052;-84
2021/12/20 08:19:03;;;;;;;35.20;5.97;;;5.50;99.90;;;2.85;100.00;101710.91;4989848;28;20097;-84
2021/12/20 08:21:30;;;;;;;30.98;5.35;;;5.50;99.90;;;2.74;100.00;101720.56;4989080;28;20034;-86
2021/12/20 08:23:57;;;;;;;26.83;4.95;;;5.50;99.90;;;2.64;100.00;101721.28;4989652;28;20137;-84
2021/12/20 08:26:26;;;;;;;34.10;5.78;;;5.50;99.90;;;2.72;100.00;101722.50;4989644;28;20134;-85
2021/12/20 08:28:55;;;;;;;32.95;5.72;;;5.50;99.90;;;2.67;100.00;101724.63;4989662;28;20054;-85
2021/12/20 08:31:22;;;;;;;28.60;4.97;;;5.50;99.90;;;2.63;100.00;101720.44;4989336;28;20128;-84
2021/12/20 08:33:50;;;;;;;36.28;6.40;;;5.50;99.90;;;2.62;100.00;101725.91;4988948;28;20046;-85
2021/12/20 08:36:17;;;;;;;25.83;5.53;;;5.50;99.90;;;2.62;100.00;101726.75;4989699;28;20612;-84
2021/12/20 08:38:44;;;;;;;22.80;5.30;;;5.50;99.90;;;2.56;100.00;101732.56;4989334;28;20081;-82
2021/12/20 08:41:12;;;;;;;25.05;6.18;;;5.50;99.90;;;2.60;100.00;101733.22;4988025;28;20089;-86
2021/12/20 08:43:40;;;;;;;27.13;6.40;;;5.50;99.90;;;2.62;100.00;101733.97;4988155;28;20618;-87
2021/12/20 08:46:10;;;;;;;29.83;6.20;;;5.50;99.90;;;2.66;100.00;101733.66;4989521;28;20069;-85
2021/12/20 08:48:38;;;;;;;26.97;5.60;;;5.50;99.90;;;2.70;100.00;101745.06;4988115;28;20508;-85
2021/12/20 08:51:06;;;;;;;32.30;5.95;;;5.50;99.90;;;2.78;100.00;101747.22;4986977;28;20578;-88
2021/12/20 08:53:34;;;;;;;28.63;6.53;;;5.50;99.90;;;2.85;100.00;101751.22;5001929;28;20050;-87
2021/12/20 08:56:02;;;;;;;34.03;6.32;;;5.60;99.90;;;2.96;100.00;101748.66;5008650;28;20124;-86
2021/12/20 08:58:30;;;;;;;30.63;6.55;;;5.60;99.90;;;3.04;100.00;101754.38;5008832;28;20096;-88
2021/12/20 09:00:57;;;;;;;31.92;6.45;;;5.60;99.90;;;3.07;100.00;101748.81;5009004;28;20040;-88
2021/12/20 09:03:28;;;;;;;35.97;6.07;;;5.60;99.90;;;3.05;100.00;101749.88;5008534;28;20081;-88
2021/12/20 09:05:55;;;;;;;28.30;6.43;;;5.80;99.90;;;3.10;100.00;101753.09;5008290;28;20062;-88
2021/12/20 09:08:23;;;;;;;27.27;6.90;;;5.70;99.90;;;3.16;100.00;101749.13;4998287;28;20333;-91
2021/12/20 09:10:51;;;;;;;35.20;6.68;;;5.70;99.90;;;3.35;100.00;101748.72;4989376;28;20046;-91
2021/12/20 09:13:19;;;;;;;34.17;7.10;;;5.70;99.90;;;3.33;100.00;101755.06;4985860;28;20043;-91
2021/12/20 09:15:46;;;;;;;43.85;8.10;;;5.70;99.90;;;3.50;100.00;101753.91;4986807;28;20055;-91
2021/12/20 09:18:14;;;;;;;29.15;6.43;;;5.70;99.90;;;3.58;100.00;101752.47;4994081;28;20045;-91
2021/12/20 09:20:43;;;;;;;40.00;8.07;;;5.80;99.90;;;3.62;100.00;101748.63;4984547;28;20137;-92
2021/12/20 09:23:12;;;;;;;39.72;8.25;;;5.80;99.90;;;3.78;100.00;101760.00;4983551;28;20038;-92
2021/12/20 09:25:43;;;;;;;32.60;7.22;;;5.90;99.90;;;3.83;100.00;101757.84;4984215;28;20046;-91
2021/12/20 09:28:12;;;;;;;;;;;5.90;99.90;;;3.85;100.00;101758.59;4984867;28;20562;-92
2021/12/20 09:30:43;;;;;;;38.63;7.38;;;5.90;99.90;;;3.81;100.00;101759.78;4974700;28;19926;-92
2021/12/20 09:33:12;;;;;;;51.85;8.18;;;5.90;99.90;;;3.84;100.00;101758.69;4981904;28;20047;-91
2021/12/20 09:35:40;;;;;;;34.00;7.10;;;6.00;99.90;;;3.89;100.00;101770.84;4976442;28;20060;-88
2021/12/20 09:38:15;;;;;;;34.25;7.03;;;6.00;99.90;;;3.98;100.00;101769.34;4976949;28;20097;-93
2021/12/20 09:41:01;;;;;;;34.22;6.78;;;5.90;99.90;;;4.01;100.00;101762.88;5000875;28;20054;-93
2021/12/20 09:43:30;;;;;;;39.50;7.38;;;6.00;99.90;;;4.09;100.00;101771.25;4980309;28;20074;-92
2021/12/20 09:45:59;;;;;;;31.80;7.38;;;6.10;99.90;;;4.12;100.00;101773.72;4993059;28;20100;-92
2021/12/20 09:48:27;;;;;;;38.78;8.68;;;6.10;99.90;;;4.13;100.00;101761.97;4993864;28;20053;-92
2021/12/20 09:50:59;;;;;;;35.65;7.45;;;6.10;99.90;;;4.22;100.00;101755.06;4993988;28;20050;-92
2021/12/20 09:53:28;;;;;;;40.08;7.90;;;6.20;99.90;;;4.25;100.00;101774.56;4993598;28;20089;-92
2021/12/20 09:55:58;;;;;;;45.90;8.20;;;6.20;99.90;;;4.28;100.00;101758.16;4984561;28;20062;-92
2021/12/20 09:58:27;;;;;;;34.45;8.05;;;6.30;99.90;;;4.29;100.00;101759.88;4974850;28;20074;-92
2021/12/20 10:00:56;;;;;;;45.22;7.72;;;6.30;99.90;;;4.38;100.00;101763.75;4973974;28;20043;-91
2021/12/20 10:03:27;;;;;;;38.65;8.85;;;6.30;99.90;;;4.37;100.00;101762.00;4973505;28;20435;-91
2021/12/20 10:05:56;;;;;;;49.30;7.97;;;6.30;99.90;;;4.39;100.00;101759.19;4991203;28;20060;-88
2021/12/20 10:08:32;;;;;;;37.97;7.32;;;6.30;99.90;;;4.42;100.00;101767.91;4991577;28;20050;-91
2021/12/20 10:11:07;;;;;;;45.67;8.95;;;6.30;99.90;;;4.40;100.00;101764.47;4992894;28;20403;-90
2021/12/20 10:13:37;;;;;;;45.28;7.80;;;6.40;99.90;;;4.42;100.00;101764.38;4988770;28;20047;-92
2021/12/20 10:16:17;;;;;;;36.80;8.18;;;6.40;99.90;;;4.44;100.00;101774.06;4973822;28;20046;-92
2021/12/20 10:18:45;;;;;;;36.10;7.65;;;6.40;99.90;;;4.43;100.00;101768.78;4973219;28;20042;-92
2021/12/20 10:21:13;;;;;;;36.83;7.43;;;6.40;99.90;;;4.45;100.00;101767.69;4988063;28;20141;-92
2021/12/20 10:23:44;;;;;;;34.85;8.60;;;6.40;99.90;;;4.50;100.00;101762.81;4991051;28;20565;-90
2021/12/20 10:26:15;;;;;;;35.03;7.65;;;6.50;99.90;;;4.58;100.00;101764.94;4991649;28;20149;-87
2021/12/20 10:28:44;;;;;;;34.97;8.10;;;6.50;99.90;;;4.64;100.00;101767.16;4990674;28;20049;-89
2021/12/20 10:31:14;;;;;;;37.83;7.93;;;6.50;99.90;;;4.61;100.00;101772.81;5007783;28;20108;-90
2021/12/20 10:33:50;;;;;;;36.35;7.72;;;6.50;99.90;;;4.64;100.00;101769.84;5010022;28;20070;-88
2021/12/20 10:36:18;;;;;;;35.83;8.10;;;6.50;99.90;;;4.68;100.00;101768.69;5010913;28;20128;-90